Time;durP1;ratioP1;P1;durP2;ratioP2;P2;SDS_P1;SDS_P2;PMS_P1;PMS_P2;Temp;Humidity;BMP_temperature;BMP_pressure;BME280_temperature;BME280_humidity;BME280_pressure;Samples;Min_cycle;Max_cycle;Signal;HPM_P1;HPM_P2
2023/06/08 00:01:43;;;;;;;8.05;5.03;;;14.30;99.90;;;;;;5074047;28;20522;-82
2023/06/08 00:04:09;;;;;;;6.65;4.22;;;14.40;99.90;;;;;;5074209;28;20192;-82
2023/06/08 00:06:37;;;;;;;7.55;4.50;;;14.40;99.90;;;;;;5073995;28;20171;-82
2023/06/08 00:09:07;;;;;;;7.22;4.03;;;14.40;99.90;;;;;;5074035;28;20274;-82
2023/06/08 00:11:33;;;;;;;6.25;3.88;;;14.30;99.90;;;;;;5074190;28;20164;-82
2023/06/08 00:13:59;;;;;;;7.63;4.20;;;14.40;99.90;;;;;;5074249;28;20215;-82
2023/06/08 00:16:27;;;;;;;6.78;4.32;;;14.40;99.90;;;;;;5073866;28;20175;-82
2023/06/08 00:18:56;;;;;;;6.93;3.80;;;14.40;99.90;;;;;;5073692;28;20636;-82
2023/06/08 00:21:29;;;;;;;7.15;3.85;;;14.40;99.90;;;;;;5073744;28;20203;-82
2023/06/08 00:23:55;;;;;;;6.88;3.97;;;14.40;99.90;;;;;;5056938;28;20199;-82
2023/06/08 00:26:22;;;;;;;6.75;4.63;;;14.40;99.90;;;;;;5073492;28;20225;-82
2023/06/08 00:28:48;;;;;;;6.95;4.22;;;14.40;99.90;;;;;;5055956;28;20171;-82
2023/06/08 00:31:15;;;;;;;17.00;4.78;;;14.40;99.90;;;;;;5073695;28;20258;-82
2023/06/08 00:33:41;;;;;;;6.40;3.95;;;14.40;99.90;;;;;;5073290;28;20175;-82
2023/06/08 00:36:07;;;;;;;8.48;4.63;;;14.40;99.90;;;;;;5073521;28;20175;-82
2023/06/08 00:38:34;;;;;;;7.60;4.20;;;14.40;99.90;;;;;;5073741;28;20224;-82
2023/06/08 00:41:00;;;;;;;5.50;4.18;;;14.40;99.90;;;;;;5073537;28;20198;-82
2023/06/08 00:43:26;;;;;;;7.40;4.45;;;14.40;99.90;;;;;;5055377;28;20222;-82
2023/06/08 00:45:53;;;;;;;6.13;4.50;;;14.40;99.90;;;;;;5073256;28;20182;-82
2023/06/08 00:48:18;;;;;;;7.90;4.10;;;14.40;99.90;;;;;;5073465;28;20171;-83
2023/06/08 00:50:46;;;;;;;7.40;3.83;;;14.40;99.90;;;;;;5055278;28;20179;-82
2023/06/08 00:53:13;;;;;;;9.63;5.03;;;14.40;99.90;;;;;;5073783;28;20198;-82
2023/06/08 00:55:39;;;;;;;8.52;4.10;;;14.40;99.90;;;;;;5072976;28;20228;-82
2023/06/08 00:58:13;;;;;;;8.25;4.68;;;14.30;99.90;;;;;;5073484;28;20262;-82
2023/06/08 01:00:42;;;;;;;6.93;4.05;;;14.30;99.90;;;;;;5073484;28;20179;-82
2023/06/08 01:03:08;;;;;;;9.80;4.70;;;14.30;99.90;;;;;;5055960;28;20202;-82
2023/06/08 01:05:38;;;;;;;7.20;4.00;;;14.30;99.90;;;;;;5073638;28;20183;-82
2023/06/08 01:08:42;;;;;;;8.52;4.75;;;14.30;99.90;;;;;;5073330;28;20207;-82
2023/06/08 01:11:16;;;;;;;6.55;4.80;;;14.30;99.90;;;;;;5073439;28;20253;-82
2023/06/08 01:13:48;;;;;;;6.53;5.10;;;14.30;99.90;;;;;;5072880;28;20213;-81
2023/06/08 01:16:16;;;;;;;6.60;4.50;;;14.30;99.90;;;;;;5073184;28;20179;-82
2023/06/08 01:18:44;;;;;;;9.07;5.18;;;14.30;99.90;;;;;;5073056;28;20224;-82
2023/06/08 01:21:41;;;;;;;9.30;5.32;;;14.30;99.90;;;;;;5073038;28;20175;-82
2023/06/08 01:24:15;;;;;;;9.43;4.97;;;14.20;99.90;;;;;;5054924;28;20202;-82
2023/06/08 01:26:43;;;;;;;9.65;4.75;;;14.30;99.90;;;;;;5072889;28;20230;-82
2023/06/08 01:29:13;;;;;;;7.25;5.05;;;14.20;99.90;;;;;;5073283;28;20547;-82
2023/06/08 01:31:39;;;;;;;8.20;4.85;;;14.20;99.90;;;;;;5055683;28;20175;-82
2023/06/08 01:34:05;;;;;;;6.53;4.50;;;14.10;99.90;;;;;;5072875;28;20178;-82
2023/06/08 01:36:49;;;;;;;9.00;4.75;;;14.20;99.90;;;;;;5055063;28;20525;-82
2023/06/08 01:39:36;;;;;;;5.28;4.53;;;14.10;99.90;;;;;;5073075;28;20167;-82
2023/06/08 01:42:03;;;;;;;8.00;4.63;;;14.10;99.90;;;;;;5072783;28;20202;-82
2023/06/08 01:44:35;;;;;;;6.03;3.78;;;14.00;99.90;;;;;;5055403;28;20210;-82
2023/06/08 01:47:02;;;;;;;9.02;4.63;;;14.00;99.90;;;;;;5072603;28;20156;-82
2023/06/08 01:49:30;;;;;;;8.30;5.00;;;14.00;99.90;;;;;;5072852;28;20178;-82
2023/06/08 01:51:57;;;;;;;10.02;5.03;;;14.00;99.90;;;;;;5072573;28;20191;-81
2023/06/08 01:54:23;;;;;;;12.38;4.93;;;13.90;99.90;;;;;;5072756;28;20203;-82
2023/06/08 01:56:48;;;;;;;7.15;4.35;;;13.90;99.90;;;;;;5076267;28;20210;-82
2023/06/08 01:59:14;;;;;;;7.53;4.38;;;13.80;99.90;;;;;;5058809;28;20183;-82
2023/06/08 02:01:40;;;;;;;11.10;4.55;;;13.80;99.90;;;;;;5076609;28;20682;-82
2023/06/08 02:04:06;;;;;;;13.13;5.78;;;13.70;99.90;;;;;;5075958;28;20215;-82
2023/06/08 02:06:31;;;;;;;10.50;4.93;;;13.70;99.90;;;;;;5076545;28;20266;-82
2023/06/08 02:08:58;;;;;;;7.93;4.85;;;13.70;99.90;;;;;;5076100;28;20187;-82
2023/06/08 02:11:23;;;;;;;6.57;4.43;;;13.60;99.90;;;;;;5076302;28;20172;-82
2023/06/08 02:13:49;;;;;;;7.13;4.95;;;13.60;99.90;;;;;;5076320;28;20187;-82
2023/06/08 02:16:18;;;;;;;12.27;5.53;;;13.60;99.90;;;;;;5076285;28;20187;-82
2023/06/08 02:18:44;;;;;;;12.35;5.78;;;13.50;99.90;;;;;;5076337;28;20210;-82
2023/06/08 02:21:11;;;;;;;7.75;5.10;;;13.50;99.90;;;;;;5075842;28;20225;-82
2023/06/08 02:23:37;;;;;;;8.70;5.40;;;13.50;99.90;;;;;;5076000;28;20214;-81
2023/06/08 02:26:04;;;;;;;9.05;5.32;;;13.40;99.90;;;;;;5075798;28;20202;-82
2023/06/08 02:28:30;;;;;;;11.00;5.40;;;13.40;99.90;;;;;;5075807;28;20234;-82
2023/06/08 02:30:55;;;;;;;7.55;4.57;;;13.40;99.90;;;;;;5075834;28;20180;-82
2023/06/08 02:33:21;;;;;;;7.15;4.55;;;13.40;99.90;;;;;;5076138;28;20563;-82
2023/06/08 02:35:48;;;;;;;6.57;4.40;;;13.40;99.90;;;;;;5041359;28;20227;-81
2023/06/08 02:38:14;;;;;;;7.85;4.65;;;13.40;99.90;;;;;;5075657;28;20179;-82
2023/06/08 02:40:39;;;;;;;9.55;5.25;;;13.40;99.90;;;;;;5075780;28;20182;-82
2023/06/08 02:43:05;;;;;;;7.15;5.00;;;13.40;99.90;;;;;;5057649;28;20221;-82
2023/06/08 02:45:31;;;;;;;6.80;5.00;;;13.40;99.90;;;;;;5075438;28;20624;-82
2023/06/08 02:47:57;;;;;;;10.30;4.88;;;13.40;99.90;;;;;;5075342;28;20536;-82
2023/06/08 02:50:23;;;;;;;7.40;4.93;;;13.40;99.90;;;;;;5075650;28;20640;-81
2023/06/08 02:52:49;;;;;;;8.80;4.80;;;13.40;99.90;;;;;;5057948;28;20217;-81
2023/06/08 02:55:15;;;;;;;10.85;5.50;;;13.40;99.90;;;;;;5075499;28;20194;-82
2023/06/08 02:57:41;;;;;;;8.63;5.45;;;13.50;99.90;;;;;;5075471;28;20620;-82
2023/06/08 03:00:07;;;;;;;8.20;5.00;;;13.50;99.90;;;;;;5074999;28;20202;-82
2023/06/08 03:02:36;;;;;;;8.10;5.45;;;13.60;99.90;;;;;;5057293;28;20639;-81
2023/06/08 03:05:05;;;;;;;8.60;5.55;;;13.60;99.90;;;;;;5074939;28;20241;-82
2023/06/08 03:07:33;;;;;;;10.48;6.28;;;13.60;99.90;;;;;;5075075;28;20178;-83
2023/06/08 03:09:59;;;;;;;9.18;4.88;;;13.60;99.90;;;;;;5057061;28;20237;-82
2023/06/08 03:12:25;;;;;;;10.93;4.75;;;13.60;99.90;;;;;;5075357;28;20250;-82
2023/06/08 03:14:50;;;;;;;5.10;3.88;;;13.70;99.90;;;;;;5074930;28;20262;-82
2023/06/08 03:17:17;;;;;;;8.02;4.93;;;13.70;99.90;;;;;;5074900;28;20262;-82
2023/06/08 03:19:43;;;;;;;12.88;5.40;;;13.80;99.90;;;;;;5080597;28;20155;-81
2023/06/08 03:22:09;;;;;;;11.18;4.97;;;13.80;99.90;;;;;;5099672;28;20412;-81
2023/06/08 03:24:36;;;;;;;9.05;5.40;;;13.80;99.90;;;;;;5066212;28;20175;-82
2023/06/08 03:27:03;;;;;;;6.38;4.53;;;13.80;99.90;;;;;;5099218;28;20207;-82
2023/06/08 03:29:30;;;;;;;12.73;5.05;;;13.80;99.90;;;;;;5077145;28;20187;-82
2023/06/08 03:31:56;;;;;;;8.95;5.75;;;13.80;99.90;;;;;;5075354;28;20178;-82
2023/06/08 03:34:25;;;;;;;9.90;4.93;;;13.80;99.90;;;;;;5075173;28;20216;-81
2023/06/08 03:36:51;;;;;;;10.70;5.05;;;13.80;99.90;;;;;;5074855;28;20179;-82
2023/06/08 03:39:17;;;;;;;8.85;5.35;;;13.70;99.90;;;;;;5074622;28;20198;-82
2023/06/08 03:41:43;;;;;;;6.13;3.83;;;13.70;99.90;;;;;;5040122;28;20534;-82
2023/06/08 03:44:09;;;;;;;8.02;5.30;;;13.80;99.90;;;;;;5074530;28;20219;-82
2023/06/08 03:46:35;;;;;;;16.48;5.18;;;13.80;99.90;;;;;;5074687;28;20597;-82
2023/06/08 03:49:00;;;;;;;8.07;5.03;;;13.80;99.90;;;;;;5074300;28;20172;-82
2023/06/08 03:51:26;;;;;;;9.85;4.78;;;13.90;99.90;;;;;;5074719;28;20636;-82
2023/06/08 03:53:52;;;;;;;9.55;5.10;;;14.00;99.90;;;;;;5056607;28;20186;-82
2023/06/08 03:56:18;;;;;;;5.95;4.68;;;13.90;99.90;;;;;;5056225;28;20561;-82
2023/06/08 03:58:44;;;;;;;6.03;4.30;;;13.90;99.90;;;;;;5074432;28;20179;-82
2023/06/08 04:01:11;;;;;;;7.28;4.57;;;13.90;99.90;;;;;;5074482;28;20580;-82
2023/06/08 04:03:36;;;;;;;8.80;5.35;;;14.00;99.90;;;;;;5074250;28;20635;-82
2023/06/08 04:06:03;;;;;;;10.48;4.80;;;13.90;99.90;;;;;;5074159;28;20218;-83
2023/06/08 04:08:31;;;;;;;11.95;5.43;;;13.90;99.90;;;;;;5074256;28;20179;-82
2023/06/08 04:10:58;;;;;;;7.93;5.18;;;14.00;99.90;;;;;;5074117;28;20187;-82
2023/06/08 04:13:25;;;;;;;7.82;4.85;;;14.00;99.90;;;;;;5074585;28;20712;-82
2023/06/08 04:15:51;;;;;;;11.10;4.78;;;14.00;99.90;;;;;;5074294;28;20262;-82
2023/06/08 04:18:17;;;;;;;7.60;4.70;;;14.10;99.90;;;;;;5073379;28;20186;-82
2023/06/08 04:20:42;;;;;;;8.85;4.78;;;14.10;99.90;;;;;;5074062;28;20167;-82
2023/06/08 04:23:11;;;;;;;6.13;4.90;;;14.20;99.90;;;;;;5073770;28;20214;-82
2023/06/08 04:25:36;;;;;;;7.65;4.35;;;14.30;99.90;;;;;;5074000;28;20175;-82
2023/06/08 04:28:03;;;;;;;7.72;5.10;;;14.40;99.90;;;;;;5073542;28;20231;-83
2023/06/08 04:30:28;;;;;;;8.00;4.70;;;14.40;99.90;;;;;;5073997;28;20183;-82
2023/06/08 04:32:55;;;;;;;6.55;4.55;;;14.40;99.90;;;;;;5073726;28;20187;-82
2023/06/08 04:35:21;;;;;;;7.97;5.13;;;14.50;99.90;;;;;;5055580;28;20202;-82
2023/06/08 04:37:47;;;;;;;5.30;4.05;;;14.50;99.90;;;;;;5073814;28;20245;-82
2023/06/08 04:40:13;;;;;;;9.18;4.93;;;14.60;99.90;;;;;;5055189;28;20211;-82
2023/06/08 04:42:41;;;;;;;7.40;4.13;;;14.60;99.90;;;;;;5073863;28;20269;-82
2023/06/08 04:45:08;;;;;;;5.55;4.38;;;14.70;99.90;;;;;;5073409;28;20632;-82
2023/06/08 04:47:37;;;;;;;6.40;4.85;;;14.70;99.90;;;;;;5073608;28;20179;-82
2023/06/08 04:50:09;;;;;;;5.75;4.45;;;14.80;99.90;;;;;;5073403;28;20171;-82
2023/06/08 04:52:41;;;;;;;7.43;4.93;;;14.90;99.90;;;;;;5055622;28;20219;-82
2023/06/08 04:55:12;;;;;;;6.68;4.22;;;14.90;99.90;;;;;;5073425;28;20167;-82
2023/06/08 04:57:42;;;;;;;7.05;4.28;;;15.00;99.90;;;;;;5073423;28;20631;-82
2023/06/08 05:00:09;;;;;;;5.50;4.20;;;15.00;99.90;;;;;;5072981;28;20207;-82
2023/06/08 05:02:36;;;;;;;6.88;4.05;;;15.00;99.90;;;;;;5073080;28;20281;-81
2023/06/08 05:05:03;;;;;;;7.55;5.38;;;15.10;99.90;;;;;;5055498;28;20179;-82
2023/06/08 05:07:29;;;;;;;7.03;4.75;;;15.20;99.90;;;;;;5072961;28;20175;-82
2023/06/08 05:09:56;;;;;;;6.05;4.90;;;15.20;99.90;;;;;;5073423;28;20292;-82
2023/06/08 05:12:22;;;;;;;6.75;4.88;;;15.30;99.90;;;;;;5073120;28;20186;-82
2023/06/08 05:14:48;;;;;;;9.00;4.90;;;15.40;99.90;;;;;;5073209;28;20175;-82
2023/06/08 05:17:13;;;;;;;5.88;4.63;;;15.50;99.90;;;;;;5072694;28;20203;-82
2023/06/08 05:19:39;;;;;;;8.07;4.80;;;15.50;99.90;;;;;;5073383;28;20653;-82
2023/06/08 05:22:05;;;;;;;6.57;4.78;;;15.60;99.90;;;;;;5073868;28;20183;-82
2023/06/08 05:24:30;;;;;;;5.88;4.30;;;15.60;99.90;;;;;;5072846;28;20240;-82
2023/06/08 05:26:56;;;;;;;6.07;4.50;;;15.70;99.90;;;;;;5071529;28;20307;-82
2023/06/08 05:29:22;;;;;;;7.78;4.60;;;15.80;99.90;;;;;;5071034;28;20199;-82
2023/06/08 05:31:49;;;;;;;7.07;4.95;;;15.80;99.90;;;;;;5075095;28;20232;-82
2023/06/08 05:34:15;;;;;;;6.97;4.85;;;15.80;99.90;;;;;;5040265;28;20624;-82
2023/06/08 05:36:40;;;;;;;8.23;4.45;;;15.90;99.90;;;;;;5057680;28;20237;-83
2023/06/08 05:39:06;;;;;;;8.68;4.88;;;16.00;99.90;;;;;;5075517;28;20179;-83
2023/06/08 05:41:32;;;;;;;11.15;4.28;;;16.10;99.90;;;;;;5057205;28;20171;-82
2023/06/08 05:43:58;;;;;;;8.10;4.45;;;16.10;99.90;;;;;;5057089;28;20210;-83
2023/06/08 05:46:24;;;;;;;6.00;4.53;;;16.20;99.90;;;;;;5057069;28;20224;-83
2023/06/08 05:48:49;;;;;;;6.97;4.90;;;16.20;99.90;;;;;;5056911;28;20182;-82
2023/06/08 05:51:15;;;;;;;6.20;4.28;;;16.40;99.90;;;;;;5056854;28;20191;-81
2023/06/08 05:53:41;;;;;;;7.75;4.38;;;16.40;99.90;;;;;;5074986;28;20534;-83
2023/06/08 05:56:07;;;;;;;6.47;4.18;;;16.40;99.90;;;;;;5074151;28;20175;-82
2023/06/08 05:58:32;;;;;;;5.05;3.88;;;16.50;99.90;;;;;;5074211;28;20171;-82
2023/06/08 06:00:59;;;;;;;8.43;4.47;;;16.50;99.90;;;;;;5074096;28;20258;-82
2023/06/08 06:03:24;;;;;;;5.32;4.22;;;16.50;99.90;;;;;;5055969;28;20694;-83
2023/06/08 06:05:50;;;;;;;5.90;3.90;;;16.60;99.90;;;;;;5074045;28;20495;-82
2023/06/08 06:08:16;;;;;;;6.47;4.55;;;16.70;99.90;;;;;;5074165;28;20183;-82
2023/06/08 06:10:42;;;;;;;7.85;4.45;;;16.90;99.90;;;;;;5071389;28;20202;-83
2023/06/08 06:13:07;;;;;;;6.82;4.40;;;17.00;99.90;;;;;;5075571;28;20710;-84
2023/06/08 06:15:33;;;;;;;6.40;4.13;;;17.20;99.90;;;;;;5073847;28;20172;-84
2023/06/08 06:17:59;;;;;;;7.18;4.63;;;17.30;99.90;;;;;;5074015;28;20654;-84
2023/06/08 06:20:27;;;;;;;8.27;4.88;;;17.30;99.90;;;;;;5073906;28;20621;-83
2023/06/08 06:22:53;;;;;;;5.82;4.25;;;17.30;99.90;;;;;;5075193;28;20571;-83
2023/06/08 06:25:21;;;;;;;6.28;4.43;;;17.40;99.90;;;;;;5075239;28;20179;-83
2023/06/08 06:27:47;;;;;;;6.75;4.32;;;17.40;99.90;;;;;;5057544;28;20574;-83
2023/06/08 06:30:13;;;;;;;6.72;3.95;;;17.50;99.90;;;;;;5074323;28;20185;-84
2023/06/08 06:32:38;;;;;;;6.32;3.97;;;17.50;99.90;;;;;;5055977;28;20262;-83
2023/06/08 06:35:04;;;;;;;6.40;4.13;;;17.50;99.90;;;;;;5073667;28;20202;-83
2023/06/08 06:37:34;;;;;;;5.50;4.00;;;17.50;99.90;;;;;;5073884;28;20194;-84
2023/06/08 06:40:01;;;;;;;5.50;4.18;;;17.60;99.90;;;;;;5071817;28;20175;-84
2023/06/08 06:42:27;;;;;;;7.32;4.22;;;17.70;99.90;;;;;;5072903;28;20679;-83
2023/06/08 06:44:53;;;;;;;5.80;3.72;;;17.90;99.90;;;;;;5055876;28;20183;-83
2023/06/08 06:47:18;;;;;;;5.88;4.45;;;17.90;99.90;;;;;;5073039;28;20640;-83
2023/06/08 06:49:44;;;;;;;6.50;3.72;;;18.00;99.90;;;;;;5073580;28;20632;-83
2023/06/08 06:52:10;;;;;;;5.55;3.70;;;18.20;99.90;;;;;;5073547;28;20266;-82
2023/06/08 06:54:35;;;;;;;10.07;3.90;;;18.20;99.90;;;;;;5073044;28;20188;-83
2023/06/08 06:57:01;;;;;;;7.63;4.18;;;18.20;99.90;;;;;;5073253;28;20643;-82
2023/06/08 06:59:28;;;;;;;5.65;3.97;;;18.30;99.90;;;;;;5072872;28;20175;-83
2023/06/08 07:01:54;;;;;;;6.70;3.40;;;18.20;99.90;;;;;;5072871;28;20229;-83
2023/06/08 07:04:21;;;;;;;7.43;4.35;;;18.20;99.90;;;;;;5072713;28;20619;-83
2023/06/08 07:06:47;;;;;;;6.25;4.28;;;18.30;99.90;;;;;;5055099;28;20171;-83
2023/06/08 07:09:16;;;;;;;5.70;3.55;;;18.40;99.90;;;;;;5073196;28;20175;-82
2023/06/08 07:11:41;;;;;;;5.90;3.95;;;18.50;99.90;;;;;;5055020;28;20225;-82
2023/06/08 07:14:07;;;;;;;15.00;4.88;;;18.50;99.90;;;;;;5072861;28;20183;-82
2023/06/08 07:16:33;;;;;;;5.90;3.83;;;18.60;99.90;;;;;;5072424;28;20632;-81
2023/06/08 07:18:58;;;;;;;6.00;3.97;;;18.60;99.90;;;;;;5055095;28;20616;-81
2023/06/08 07:21:25;;;;;;;6.22;4.38;;;18.70;99.90;;;;;;5072644;28;20266;-80
2023/06/08 07:23:51;;;;;;;6.57;4.63;;;18.80;99.90;;;;;;5072806;28;20264;-81
2023/06/08 07:26:17;;;;;;;4.45;3.65;;;19.00;99.90;;;;;;5072295;28;20179;-82
2023/06/08 07:28:42;;;;;;;5.78;4.30;;;18.90;99.90;;;;;;5072767;28;20175;-82
2023/06/08 07:31:08;;;;;;;6.50;3.97;;;19.00;99.90;;;;;;5072281;28;20183;-81
2023/06/08 07:33:34;;;;;;;5.63;4.13;;;19.10;99.90;;;;;;5054705;28;20211;-81
2023/06/08 07:36:00;;;;;;;7.30;4.78;;;18.90;99.90;;;;;;5072399;28;20187;-81
2023/06/08 07:38:25;;;;;;;8.02;4.82;;;19.00;99.90;;;;;;5072172;28;20667;-81
2023/06/08 07:40:51;;;;;;;5.05;4.05;;;19.10;99.90;;;;;;5072451;28;20188;-81
2023/06/08 07:43:17;;;;;;;6.15;4.30;;;19.20;99.90;;;;;;5072407;28;20694;-81
2023/06/08 07:45:42;;;;;;;7.22;4.35;;;19.20;99.90;;;;;;5072363;28;20183;-82
2023/06/08 07:48:08;;;;;;;7.00;4.40;;;19.30;99.90;;;;;;5072794;28;20181;-81
2023/06/08 07:50:34;;;;;;;8.75;5.05;;;19.40;99.90;;;;;;5072611;28;20194;-81
2023/06/08 07:52:59;;;;;;;8.60;4.53;;;19.50;99.90;;;;;;5072129;28;20252;-81
2023/06/08 07:55:25;;;;;;;6.15;4.47;;;19.50;99.90;;;;;;5073665;28;20551;-82
2023/06/08 07:57:51;;;;;;;8.73;4.05;;;19.60;99.90;;;;;;5055882;28;20534;-81
2023/06/08 08:00:17;;;;;;;6.55;4.43;;;19.70;99.90;;;;;;5080705;28;20649;-81
2023/06/08 08:02:43;;;;;;;7.50;4.90;;;19.70;99.90;;;;;;5075880;28;20267;-82
2023/06/08 08:05:09;;;;;;;8.50;4.57;;;19.80;99.90;;;;;;5094725;28;20178;-82
2023/06/08 08:07:36;;;;;;;8.30;5.15;;;19.70;99.90;;;;;;5093995;28;20171;-81
2023/06/08 08:10:03;;;;;;;9.57;5.10;;;19.60;99.90;;;;;;5094138;28;20637;-81
2023/06/08 08:12:28;;;;;;;7.47;5.03;;;19.50;99.90;;;;;;5093709;28;20190;-82
2023/06/08 08:14:54;;;;;;;7.47;4.78;;;19.40;99.90;;;;;;5093912;28;20185;-82
2023/06/08 08:17:20;;;;;;;7.60;4.90;;;19.40;99.90;;;;;;5094133;28;20537;-82
2023/06/08 08:19:45;;;;;;;6.95;4.72;;;19.40;99.90;;;;;;5093848;28;20189;-82
2023/06/08 08:22:11;;;;;;;6.75;4.70;;;19.40;99.90;;;;;;5093694;28;20170;-81
2023/06/08 08:24:37;;;;;;;10.25;5.10;;;19.50;99.90;;;;;;5075402;28;20183;-80
2023/06/08 08:27:03;;;;;;;7.60;4.70;;;19.60;99.90;;;;;;5092676;28;20237;-81
2023/06/08 08:29:28;;;;;;;13.60;5.95;;;19.70;99.90;;;;;;5074393;28;20186;-81
2023/06/08 08:31:55;;;;;;;9.55;5.93;;;19.80;99.90;;;;;;5041329;28;20275;-81
2023/06/08 08:34:20;;;;;;;7.53;5.38;;;19.90;99.90;;;;;;5075042;28;20178;-81
2023/06/08 08:36:46;;;;;;;9.15;5.38;;;19.90;99.90;;;;;;5092555;28;20182;-82
2023/06/08 08:39:12;;;;;;;9.35;6.00;;;19.90;99.90;;;;;;5092427;28;20273;-82
2023/06/08 08:41:41;;;;;;;7.47;5.07;;;20.00;99.90;;;;;;5092473;28;20655;-82
2023/06/08 08:44:15;;;;;;;9.18;6.15;;;20.10;99.90;;;;;;5092534;28;20217;-81
2023/06/08 08:46:42;;;;;;;7.10;3.92;;;20.00;99.90;;;;;;5093224;28;20194;-81
2023/06/08 08:49:15;;;;;;;7.95;5.22;;;20.10;99.90;;;;;;5093414;28;20202;-81
2023/06/08 08:51:43;;;;;;;8.02;4.68;;;20.10;99.90;;;;;;5092972;28;20194;-81
2023/06/08 08:54:12;;;;;;;11.88;5.20;;;20.10;99.90;;;;;;5092903;28;20189;-82
2023/06/08 08:56:38;;;;;;;8.13;4.90;;;20.20;99.90;;;;;;5092149;28;20676;-81
2023/06/08 08:59:05;;;;;;;7.03;4.55;;;20.30;99.90;;;;;;5093227;28;20592;-81
2023/06/08 09:01:32;;;;;;;8.70;5.13;;;20.50;99.90;;;;;;5092956;28;20178;-81
2023/06/08 09:04:02;;;;;;;5.93;4.22;;;20.60;99.90;;;;;;5092889;28;20293;-81
2023/06/08 09:06:28;;;;;;;7.18;5.13;;;20.60;99.90;;;;;;5092994;28;20189;-82
2023/06/08 09:08:54;;;;;;;6.75;5.20;;;20.90;99.90;;;;;;5093166;28;20666;-82
2023/06/08 09:11:21;;;;;;;8.10;4.82;;;21.00;99.90;;;;;;5092956;28;20179;-82
2023/06/08 09:13:46;;;;;;;7.63;5.25;;;21.00;99.90;;;;;;5093011;28;20182;-81
2023/06/08 09:16:19;;;;;;;7.60;4.75;;;21.10;99.90;;;;;;5093132;28;20178;-82
2023/06/08 09:19:03;;;;;;;6.22;4.63;;;21.10;99.90;;;;;;5092651;28;20190;-81
2023/06/08 09:21:29;;;;;;;6.18;4.53;;;21.10;99.90;;;;;;5092792;28;20170;-82
2023/06/08 09:24:24;;;;;;;6.25;4.63;;;21.10;99.90;;;;;;5075435;28;20584;-81
2023/06/08 09:26:53;;;;;;;6.18;3.97;;;21.00;99.90;;;;;;5093119;28;20354;-81
2023/06/08 09:29:37;;;;;;;8.07;4.30;;;20.90;99.90;;;;;;5094985;28;20161;-81
2023/06/08 09:32:04;;;;;;;6.50;4.38;;;21.00;99.90;;;;;;5093104;28;20185;-82
2023/06/08 09:34:33;;;;;;;5.68;4.13;;;21.10;99.90;;;;;;5092703;28;20170;-81
2023/06/08 09:37:10;;;;;;;5.45;3.75;;;21.30;99.90;;;;;;5093045;28;20187;-82
2023/06/08 09:39:43;;;;;;;6.25;3.92;;;21.50;99.90;;;;;;5078993;28;20178;-82
2023/06/08 09:42:09;;;;;;;5.85;3.65;;;21.70;99.90;;;;;;5072483;28;20171;-82
2023/06/08 09:44:36;;;;;;;7.18;4.30;;;21.70;99.90;;;;;;5072135;28;20199;-82
2023/06/08 09:47:25;;;;;;;5.75;4.13;;;21.70;99.90;;;;;;5072917;28;20195;-82
2023/06/08 09:49:52;;;;;;;6.25;4.18;;;21.60;99.90;;;;;;5054366;28;20435;-81
2023/06/08 09:52:22;;;;;;;5.93;3.60;;;21.40;99.90;;;;;;5072596;28;20196;-82
2023/06/08 09:54:50;;;;;;;6.53;4.72;;;21.30;99.90;;;;;;5072412;28;20191;-82
2023/06/08 09:57:17;;;;;;;6.00;4.05;;;21.10;99.90;;;;;;5072029;28;20186;-82
2023/06/08 09:59:50;;;;;;;6.57;3.50;;;21.10;99.90;;;;;;5072832;28;20172;-82
2023/06/08 10:02:18;;;;;;;7.93;4.50;;;21.00;99.90;;;;;;5075320;28;20171;-82
2023/06/08 10:04:55;;;;;;;8.27;4.18;;;21.10;99.90;;;;;;5078502;28;20176;-82
2023/06/08 10:07:29;;;;;;;8.93;4.57;;;21.10;99.90;;;;;;5052791;28;20168;-82
2023/06/08 10:10:06;;;;;;;6.32;3.78;;;21.20;99.90;;;;;;5062291;28;20769;-83
2023/06/08 10:12:33;;;;;;;7.35;4.30;;;21.40;99.90;;;;;;5058699;28;20175;-84
2023/06/08 10:15:00;;;;;;;5.93;4.03;;;21.90;99.90;;;;;;5081104;28;20205;-83
2023/06/08 10:17:28;;;;;;;4.78;3.35;;;22.30;99.90;;;;;;5085675;28;20167;-83
2023/06/08 10:19:53;;;;;;;5.32;3.47;;;22.60;99.90;;;;;;5084535;28;20198;-81
2023/06/08 10:22:20;;;;;;;5.30;3.58;;;23.00;99.90;;;;;;5062318;28;20627;-82
2023/06/08 10:24:46;;;;;;;4.55;3.60;;;23.20;99.90;;;;;;5076083;28;20179;-82
2023/06/08 10:27:24;;;;;;;4.50;3.22;;;23.20;99.90;;;;;;5073403;28;20234;-82
2023/06/08 10:29:55;;;;;;;5.28;3.72;;;23.20;98.80;;;;;;5073133;28;20177;-82
2023/06/08 10:32:32;;;;;;;6.03;4.25;;;23.30;99.90;;;;;;5087019;28;20639;-83
2023/06/08 10:35:03;;;;;;;4.82;3.58;;;23.60;99.90;;;;;;5080597;28;20175;-83
2023/06/08 10:37:30;;;;;;;6.68;3.90;;;23.80;99.90;;;;;;5085771;28;20305;-83
2023/06/08 10:40:06;;;;;;;6.93;4.13;;;23.90;99.20;;;;;;5081600;28;20269;-82
2023/06/08 10:42:32;;;;;;;8.43;3.88;;;23.80;98.70;;;;;;5086159;28;20198;-82
2023/06/08 10:45:00;;;;;;;6.18;4.30;;;23.60;97.90;;;;;;5075107;28;20172;-82
2023/06/08 10:47:26;;;;;;;5.50;4.05;;;23.50;99.10;;;;;;5072699;28;20633;-81
2023/06/08 10:49:59;;;;;;;6.68;3.80;;;23.40;97.90;;;;;;5086247;28;20171;-80
2023/06/08 10:52:26;;;;;;;6.20;3.97;;;23.20;99.30;;;;;;5074476;28;20627;-81
2023/06/08 10:54:52;;;;;;;7.18;4.38;;;23.00;98.30;;;;;;5084352;28;20177;-81
2023/06/08 10:57:44;;;;;;;6.18;4.22;;;23.00;99.90;;;;;;5084087;28;20191;-81
2023/06/08 11:00:23;;;;;;;7.15;4.22;;;23.10;99.40;;;;;;5070676;28;20167;-81
2023/06/08 11:02:49;;;;;;;5.38;3.50;;;23.10;99.90;;;;;;5070092;28;20207;-80
2023/06/08 11:05:16;;;;;;;4.25;3.22;;;23.30;99.30;;;;;;5073264;28;20285;-81
2023/06/08 11:07:42;;;;;;;4.78;3.50;;;23.70;99.50;;;;;;5073410;28;20215;-81
2023/06/08 11:10:08;;;;;;;6.35;4.28;;;24.00;98.60;;;;;;5074128;28;20631;-81
2023/06/08 11:12:34;;;;;;;4.57;3.30;;;24.00;96.70;;;;;;5084288;28;20183;-83
2023/06/08 11:15:00;;;;;;;7.55;3.53;;;23.80;95.60;;;;;;5094999;28;20181;-82
2023/06/08 11:17:27;;;;;;;5.45;3.70;;;23.50;96.40;;;;;;5075806;28;20182;-81
2023/06/08 11:19:52;;;;;;;4.60;3.88;;;23.50;97.50;;;;;;5092811;28;20171;-82
2023/06/08 11:22:21;;;;;;;6.60;4.15;;;23.40;98.00;;;;;;5093838;28;20222;-82
2023/06/08 11:24:47;;;;;;;6.95;4.30;;;23.30;97.40;;;;;;5079568;28;20237;-82
2023/06/08 11:27:19;;;;;;;5.35;3.60;;;23.20;97.90;;;;;;5055548;28;20230;-82
2023/06/08 11:29:46;;;;;;;5.95;3.50;;;23.20;97.60;;;;;;5054720;28;20176;-82
2023/06/08 11:32:13;;;;;;;4.88;3.17;;;23.20;97.40;;;;;;5057298;28;20187;-81
2023/06/08 11:34:45;;;;;;;6.35;3.80;;;23.10;97.60;;;;;;5078335;28;20208;-81
2023/06/08 11:37:16;;;;;;;8.32;3.88;;;23.10;98.10;;;;;;5060517;28;20266;-82
2023/06/08 11:39:48;;;;;;;5.68;3.83;;;23.20;97.50;;;;;;5060050;28;20574;-83
2023/06/08 11:42:16;;;;;;;5.13;3.42;;;23.20;97.20;;;;;;5082893;28;20175;-82
2023/06/08 11:44:42;;;;;;;7.00;4.25;;;23.20;97.20;;;;;;5056819;28;20171;-83
2023/06/08 11:47:08;;;;;;;8.27;4.93;;;23.30;96.50;;;;;;5082561;28;20189;-83
2023/06/08 11:49:53;;;;;;;11.45;6.78;;;23.40;98.00;;;;;;5067916;28;20177;-83
2023/06/08 11:52:21;;;;;;;6.07;4.43;;;23.50;96.40;;;;;;5064177;28;20187;-80
2023/06/08 11:54:52;;;;;;;8.18;4.85;;;23.50;96.00;;;;;;5036155;28;20528;-81
2023/06/08 11:57:17;;;;;;;4.90;4.22;;;23.60;97.10;;;;;;5054139;28;20226;-81
2023/06/08 11:59:45;;;;;;;8.75;5.53;;;23.70;96.20;;;;;;5054043;28;20180;-82
2023/06/08 12:02:11;;;;;;;8.70;4.78;;;23.90;95.40;;;;;;5054083;28;20728;-82
2023/06/08 12:04:37;;;;;;;97.53;53.75;;;23.90;94.70;;;;;;5076875;28;20274;-82
2023/06/08 12:07:10;;;;;;;9.90;7.07;;;23.80;95.70;;;;;;5085114;28;20280;-83
2023/06/08 12:09:46;;;;;;;17.45;7.93;;;23.80;95.40;;;;;;5079568;28;20182;-83
2023/06/08 12:12:12;;;;;;;19.88;10.82;;;23.70;95.30;;;;;;5079125;28;20278;-83
2023/06/08 12:14:46;;;;;;;6.20;4.38;;;23.60;95.70;;;;;;5091257;28;20675;-83
2023/06/08 12:17:15;;;;;;;9.13;4.60;;;23.70;95.90;;;;;;5094300;28;20218;-83
2023/06/08 12:19:45;;;;;;;10.15;6.30;;;23.70;93.90;;;;;;5075199;28;20222;-83
2023/06/08 12:22:14;;;;;;;12.23;6.07;;;23.70;94.90;;;;;;5075073;28;20175;-83
2023/06/08 12:24:39;;;;;;;7.93;5.13;;;23.70;94.10;;;;;;5095168;28;20159;-83
2023/06/08 12:27:07;;;;;;;4.47;3.15;;;23.90;94.30;;;;;;5098364;28;20231;-83
2023/06/08 12:29:33;;;;;;;5.22;3.05;;;23.90;92.60;;;;;;5058487;28;20572;-83
2023/06/08 12:31:59;;;;;;;9.32;5.18;;;23.80;92.90;;;;;;5055289;28;20176;-81
2023/06/08 12:34:26;;;;;;;8.30;4.03;;;23.80;94.00;;;;;;5073995;28;20203;-83
2023/06/08 12:36:52;;;;;;;7.53;3.75;;;24.10;94.90;;;;;;5073344;28;20207;-82
2023/06/08 12:39:17;;;;;;;5.97;4.30;;;24.30;93.40;;;;;;5038552;28;20222;-83
2023/06/08 12:41:43;;;;;;;5.97;4.13;;;24.60;93.30;;;;;;5038654;28;20198;-86
2023/06/08 12:44:10;;;;;;;11.50;6.95;;;24.70;92.00;;;;;;5055164;28;20210;-85
2023/06/08 12:46:36;;;;;;;16.42;7.35;;;24.60;92.30;;;;;;5055826;28;20214;-85
2023/06/08 12:49:02;;;;;;;13.48;8.55;;;24.50;91.90;;;;;;5072918;28;20171;-85